Terminal Aerodrome Forecast
Issued by NWS Wilmington, OH

Current Version | Previous Version | Graphics & Text | Print | Product List | Glossary On
Versions: 1 2 3 4 5 6 7 8 9 10 11 12 13 14 15 16 17 18 19 20 21 22 23 24 25 26 27 28 29 30 31 32
000
FTUS41 KILN 271300 AAA
TAFCMH
TAF AMD
KCMH 271326Z 2713/2812 19007KT P6SM VCSH BKN008 OVC017
      TEMPO 2713/2714 4SM -SHRA
     FM271500 19008KT P6SM VCSH OVC012
     FM271800 27012KT P6SM BKN015
     FM272100 31012G22KT P6SM BKN022
     FM280400 32012G24KT P6SM VCSH BKN025=

USA.gov is the U.S. government's official web portal to all federal, state and local government web resources and services.